Time;durP1;ratioP1;P1;durP2;ratioP2;P2;SDS_P1;SDS_P2;PMS_P1;PMS_P2;Temp;Humidity;BMP_temperature;BMP_pressure;BME280_temperature;BME280_humidity;BME280_pressure;Samples;Min_cycle;Max_cycle;Signal;HPM_P1;HPM_P2
2023/04/07 00:00:19;;;;;;;0.10;0.10;;;;;;;10.56;73.22;101588.44;5031191;28;20025;-87
2023/04/07 00:02:45;;;;;;;0.15;0.15;;;;;;;10.58;72.92;101586.69;5033726;28;20025;-87
2023/04/07 00:05:12;;;;;;;0.10;0.10;;;;;;;10.60;72.96;101590.16;5033026;28;20044;-88
2023/04/07 00:07:38;;;;;;;0.10;0.10;;;;;;;10.54;73.35;101595.53;5028169;28;20034;-87
2023/04/07 00:10:04;;;;;;;0.10;0.10;;;;;;;10.59;72.97;101595.50;5033694;28;20037;-87
2023/04/07 00:12:36;;;;;;;0.10;0.10;;;;;;;10.60;72.99;101597.25;5032472;28;20580;-88
2023/04/07 00:15:03;;;;;;;0.13;0.13;;;;;;;10.61;73.12;101599.03;5027936;28;20464;-87
2023/04/07 00:17:29;;;;;;;0.00;0.00;;;;;;;10.66;73.13;101597.22;5032758;28;20116;-87
2023/04/07 00:19:55;;;;;;;0.10;0.10;;;;;;;10.67;72.92;101596.31;5031654;28;20029;-86
2023/04/07 00:22:21;;;;;;;0.00;0.00;;;;;;;10.64;73.44;101602.53;5032224;28;20030;-87
2023/04/07 00:24:47;;;;;;;0.03;0.03;;;;;;;10.67;72.95;101601.63;5031535;28;20033;-87
2023/04/07 00:27:13;;;;;;;0.25;0.25;;;;;;;10.68;72.96;101603.38;5031973;28;20021;-87
2023/04/07 00:29:39;;;;;;;0.20;0.20;;;;;;;10.70;72.56;101603.38;5026370;28;20057;-86
2023/04/07 00:32:05;;;;;;;0.35;0.30;;;;;;;10.64;72.99;101607.81;5033628;28;20037;-88
2023/04/07 00:34:32;;;;;;;0.10;0.10;;;;;;;10.67;72.91;101605.13;5032038;28;20042;-87
2023/04/07 00:36:58;;;;;;;0.10;0.10;;;;;;;10.60;72.70;101606.06;5029796;28;20026;-87
2023/04/07 00:39:26;;;;;;;0.10;0.10;;;;;;;10.61;72.73;101604.31;5032552;28;20037;-87
2023/04/07 00:41:52;;;;;;;0.10;0.10;;;;;;;10.56;73.04;101599.03;5031470;28;20033;-87
2023/04/07 00:44:18;;;;;;;0.10;0.10;;;;;;;10.58;72.97;101596.38;5031921;28;20029;-88
2023/04/07 00:46:46;;;;;;;0.00;0.00;;;;;;;10.52;73.00;101602.63;5031980;28;20033;-87
2023/04/07 00:49:12;;;;;;;0.30;0.30;;;;;;;10.55;72.80;101601.72;5032329;28;20530;-87
2023/04/07 00:51:38;;;;;;;0.10;0.10;;;;;;;10.53;72.86;101607.03;5031548;28;20030;-86
2023/04/07 00:54:08;;;;;;;0.10;0.10;;;;;;;10.60;72.84;101608.72;5030275;28;20022;-88
2023/04/07 00:56:34;;;;;;;0.13;0.13;;;;;;;10.59;72.48;101604.34;5033051;28;20037;-87
2023/04/07 00:59:02;;;;;;;1.20;1.10;;;;;;;10.56;72.94;101609.66;5031572;28;20536;-88
2023/04/07 01:01:39;;;;;;;0.10;0.10;;;;;;;10.61;72.94;101602.53;5032445;28;20498;-87
2023/04/07 01:04:19;;;;;;;0.10;0.10;;;;;;;10.65;72.45;101606.94;5027015;28;20025;-87
2023/04/07 01:06:50;;;;;;;0.17;0.17;;;;;;;10.64;72.87;101601.63;5033348;28;20032;-87
2023/04/07 01:09:21;;;;;;;0.10;0.10;;;;;;;10.58;72.62;101605.22;5032297;28;20018;-87
2023/04/07 01:12:43;;;;;;;0.10;0.10;;;;;;;10.61;72.38;101602.53;5039354;28;20029;-87
2023/04/07 01:15:16;;;;;;;0.10;0.10;;;;;;;10.48;72.07;101592.91;5029484;28;20091;-87
2023/04/07 01:17:47;;;;;;;0.10;0.10;;;;;;;10.39;72.06;101595.66;5031124;28;20025;-87
2023/04/07 01:20:28;;;;;;;0.10;0.10;;;;;;;10.32;72.18;101600.94;5032501;28;20025;-88
2023/04/07 01:22:57;;;;;;;0.10;0.10;;;;;;;10.27;71.96;101601.84;5031406;28;20029;-87
2023/04/07 01:25:52;;;;;;;0.10;0.10;;;;;;;10.21;72.21;101613.38;5032530;28;20059;-88
2023/04/07 01:28:18;;;;;;;0.10;0.10;;;;;;;10.13;72.17;101615.19;5027530;28;20087;-88
2023/04/07 01:30:54;;;;;;;0.10;0.10;;;;;;;10.13;72.06;101623.13;5030928;28;20118;-88
2023/04/07 01:33:22;;;;;;;0.00;0.00;;;;;;;10.07;72.61;101621.41;5029094;28;20037;-89
2023/04/07 01:35:50;;;;;;;0.10;0.10;;;;;;;10.11;72.53;101628.44;5031956;28;20025;-88
2023/04/07 01:38:17;;;;;;;0.10;0.10;;;;;;;10.15;72.20;101627.53;5030757;28;20163;-86
2023/04/07 01:40:44;;;;;;;0.10;0.10;;;;;;;10.14;72.79;101630.19;5029667;28;20037;-86
2023/04/07 01:43:11;;;;;;;0.10;0.10;;;;;;;10.18;72.24;101621.34;5031035;28;20091;-88
2023/04/07 01:45:38;;;;;;;0.10;0.10;;;;;;;10.17;72.94;101628.41;5034986;28;20039;-85
2023/04/07 01:48:06;;;;;;;0.10;0.10;;;;;;;10.24;72.33;101623.09;5050929;28;20064;-88
2023/04/07 01:50:44;;;;;;;0.10;0.10;;;;;;;10.27;72.88;101631.00;5053462;28;20037;-88
2023/04/07 01:53:11;;;;;;;0.03;0.03;;;;;;;10.28;72.57;101630.09;5047237;28;20033;-88
2023/04/07 01:55:37;;;;;;;0.10;0.10;;;;;;;10.29;72.96;101624.81;5032568;28;20030;-87
2023/04/07 01:58:06;;;;;;;0.10;0.10;;;;;;;10.29;72.65;101622.19;5026458;28;20029;-88
2023/04/07 02:00:33;;;;;;;0.10;0.10;;;;;;;10.26;72.78;101619.53;5034534;28;20029;-87
2023/04/07 02:03:10;;;;;;;0.10;0.10;;;;;;;10.32;72.85;101622.16;5035403;28;20018;-88
2023/04/07 02:05:39;;;;;;;0.10;0.10;;;;;;;10.31;72.68;101630.97;5033653;28;20033;-90
2023/04/07 02:08:08;;;;;;;0.20;0.20;;;;;;;10.33;72.42;101623.91;5033587;28;20083;-86
2023/04/07 02:10:37;;;;;;;0.10;0.10;;;;;;;10.36;72.71;101621.25;5041201;28;20025;-88
2023/04/07 02:13:07;;;;;;;0.10;0.10;;;;;;;10.36;72.62;101629.19;5032759;28;20025;-87
2023/04/07 02:15:35;;;;;;;0.10;0.10;;;;;;;10.35;72.61;101629.19;5034930;28;20484;-88
2023/04/07 02:18:02;;;;;;;0.20;0.20;;;;;;;10.35;72.84;101631.84;5035707;28;20041;-87
2023/04/07 02:20:29;;;;;;;0.10;0.10;;;;;;;10.35;72.42;101627.44;5034851;28;20021;-89
2023/04/07 02:22:55;;;;;;;0.10;0.10;;;;;;;10.39;72.44;101630.09;5033384;28;20033;-88
2023/04/07 02:25:23;;;;;;;0.00;0.00;;;;;;;10.40;72.61;101626.56;5034892;28;20033;-88
2023/04/07 02:27:49;;;;;;;0.10;0.10;;;;;;;10.41;72.51;101623.03;5033789;28;20408;-88
2023/04/07 02:30:15;;;;;;;0.10;0.10;;;;;;;10.42;72.50;101630.06;5033115;28;20496;-87
2023/04/07 02:32:41;;;;;;;0.10;0.10;;;;;;;10.44;72.46;101625.63;5033635;28;20029;-87
2023/04/07 02:35:07;;;;;;;0.13;0.13;;;;;;;10.42;72.57;101627.41;5035459;28;20031;-88
2023/04/07 02:37:34;;;;;;;0.10;0.10;;;;;;;10.44;72.45;101630.94;5034348;28;20033;-89
2023/04/07 02:40:00;;;;;;;0.10;0.10;;;;;;;10.45;72.34;101624.75;5035028;28;20017;-88
2023/04/07 02:42:26;;;;;;;0.08;0.08;;;;;;;10.44;72.47;101628.28;5035342;28;20029;-87
2023/04/07 02:44:52;;;;;;;0.10;0.10;;;;;;;10.44;72.22;101631.81;5034897;28;20026;-87
2023/04/07 02:47:18;;;;;;;0.10;0.10;;;;;;;10.39;72.58;101627.44;5030415;28;20032;-86
2023/04/07 02:49:44;;;;;;;0.10;0.10;;;;;;;10.35;72.55;101624.78;5034310;28;20033;-87
2023/04/07 02:52:11;;;;;;;0.80;0.75;;;;;;;10.36;72.17;101625.69;5034692;28;20041;-87
2023/04/07 02:54:37;;;;;;;0.52;0.52;;;;;;;10.33;72.32;101629.22;5033581;28;20025;-87
2023/04/07 02:57:03;;;;;;;0.10;0.10;;;;;;;10.30;72.35;101629.22;5033527;28;20048;-87
2023/04/07 02:59:29;;;;;;;0.10;0.10;;;;;;;10.28;71.96;101627.47;5033418;28;20116;-88
2023/04/07 03:01:55;;;;;;;0.20;0.20;;;;;;;10.25;72.43;101623.06;5034629;28;20027;-88
2023/04/07 03:04:21;;;;;;;0.70;0.43;;;;;;;10.19;72.60;101628.41;5033138;28;20025;-88
2023/04/07 03:06:47;;;;;;;0.45;0.45;;;;;;;10.19;72.62;101626.66;5038285;28;20029;-87
2023/04/07 03:09:14;;;;;;;0.10;0.10;;;;;;;10.20;72.51;101627.50;5052997;28;20105;-87
2023/04/07 03:11:43;;;;;;;0.10;0.10;;;;;;;10.23;72.55;101635.47;5044280;28;20105;-86
2023/04/07 03:14:09;;;;;;;1.15;0.52;;;;;;;10.25;72.35;101630.16;5037837;28;20393;-87
2023/04/07 03:16:35;;;;;;;1.65;0.95;;;;;;;10.29;72.50;101638.06;5033733;28;20045;-86
2023/04/07 03:19:01;;;;;;;2.10;0.63;;;;;;;10.30;72.60;101633.63;5032993;28;20033;-88
2023/04/07 03:21:27;;;;;;;0.10;0.10;;;;;;;10.32;72.61;101635.38;5034120;28;20029;-87
2023/04/07 03:23:54;;;;;;;0.30;0.30;;;;;;;10.31;72.62;101635.41;5033613;28;20101;-87
2023/04/07 03:26:20;;;;;;;0.10;0.10;;;;;;;10.33;72.49;101638.91;5039224;28;20037;-87
2023/04/07 03:28:46;;;;;;;0.10;0.10;;;;;;;10.39;72.36;101632.72;5034230;28;20033;-87
2023/04/07 03:31:12;;;;;;;0.10;0.10;;;;;;;10.35;72.70;101635.38;5034591;28;20025;-87
2023/04/07 03:33:38;;;;;;;0.10;0.10;;;;;;;10.42;72.54;101640.66;5036570;28;20037;-87
2023/04/07 03:36:05;;;;;;;0.10;0.10;;;;;;;10.45;72.35;101628.25;5038361;28;20052;-87
2023/04/07 03:38:31;;;;;;;0.10;0.10;;;;;;;10.44;72.72;101633.56;5033632;28;20103;-87
2023/04/07 03:40:57;;;;;;;0.10;0.10;;;;;;;10.46;72.31;101635.31;5033617;28;20034;-87
2023/04/07 03:43:23;;;;;;;0.35;0.35;;;;;;;10.47;72.34;101630.94;5036659;28;20083;-88
2023/04/07 03:45:51;;;;;;;0.38;0.38;;;;;;;10.47;72.29;101634.44;5053672;28;20044;-88
2023/04/07 03:48:17;;;;;;;0.10;0.10;;;;;;;10.44;72.47;101628.28;5048310;28;20052;-87
2023/04/07 03:50:44;;;;;;;0.10;0.10;;;;;;;10.48;72.22;101630.91;5033927;28;20033;-87
2023/04/07 03:53:12;;;;;;;0.30;0.30;;;;;;;10.46;72.34;101630.03;5026194;28;20025;-87
2023/04/07 03:55:38;;;;;;;0.10;0.10;;;;;;;10.45;72.37;101628.25;5034728;28;20029;-87
2023/04/07 03:58:04;;;;;;;0.10;0.10;;;;;;;10.49;72.67;101630.03;5028776;28;20056;-87
2023/04/07 04:00:32;;;;;;;0.10;0.10;;;;;;;10.50;72.68;101636.19;5037122;28;20033;-87
2023/04/07 04:02:59;;;;;;;0.10;0.10;;;;;;;10.49;72.32;101639.72;5031921;28;20029;-86
2023/04/07 04:05:25;;;;;;;0.45;0.45;;;;;;;10.48;72.63;101643.25;5027974;28;20025;-86
2023/04/07 04:07:52;;;;;;;0.40;0.40;;;;;;;10.42;72.75;101643.28;5033964;28;20397;-86
2023/04/07 04:10:26;;;;;;;0.08;0.08;;;;;;;10.44;72.87;101642.44;5031904;28;20563;-87
2023/04/07 04:12:54;;;;;;;0.10;0.10;;;;;;;10.50;72.88;101649.44;5032731;28;20056;-88
2023/04/07 04:15:20;;;;;;;0.10;0.10;;;;;;;10.49;72.96;101650.31;5033166;28;20057;-87
2023/04/07 04:17:49;;;;;;;0.20;0.20;;;;;;;10.48;72.90;101654.75;5034570;28;20025;-87
2023/04/07 04:20:15;;;;;;;0.10;0.10;;;;;;;10.47;72.77;101652.97;5035955;28;20025;-87
2023/04/07 04:22:41;;;;;;;0.10;0.10;;;;;;;10.55;72.55;101650.28;5032510;28;20059;-86
2023/04/07 04:25:07;;;;;;;0.05;0.05;;;;;;;10.52;72.56;101655.63;5037076;28;20104;-86
2023/04/07 04:27:34;;;;;;;0.10;0.10;;;;;;;10.53;72.23;101660.03;5049011;28;20034;-85
2023/04/07 04:30:09;;;;;;;0.10;0.10;;;;;;;10.54;72.15;101660.91;5041306;28;20053;-86
2023/04/07 04:32:35;;;;;;;0.10;0.10;;;;;;;10.53;72.25;101657.38;5028249;28;20140;-86
2023/04/07 04:35:02;;;;;;;0.10;0.10;;;;;;;10.55;72.05;101660.88;5032466;28;20029;-86
2023/04/07 04:37:28;;;;;;;0.10;0.10;;;;;;;10.54;72.40;101659.13;5033193;28;20032;-86
2023/04/07 04:39:54;;;;;;;0.10;0.10;;;;;;;10.52;72.52;101658.25;5032217;28;20048;-86
2023/04/07 04:42:20;;;;;;;0.10;0.10;;;;;;;10.52;72.22;101655.63;5033987;28;20734;-86
2023/04/07 04:44:57;;;;;;;0.10;0.10;;;;;;;10.54;71.88;101664.41;5097673;27;1235902;-81
2023/04/07 04:47:23;;;;;;;0.00;0.00;;;;;;;10.57;71.91;101664.41;5130171;28;20035;-82
2023/04/07 04:49:49;;;;;;;0.10;0.10;;;;;;;10.57;71.83;101663.53;5096973;28;20059;-81
2023/04/07 04:52:16;;;;;;;0.10;0.10;;;;;;;10.57;71.48;101669.72;5094926;28;20043;-81
2023/04/07 04:54:42;;;;;;;0.10;0.10;;;;;;;10.61;71.68;101668.78;5097403;28;20020;-81
2023/04/07 04:57:08;;;;;;;0.10;0.10;;;;;;;10.57;71.57;101676.78;5097866;28;20039;-81
2023/04/07 04:59:34;;;;;;;0.10;0.10;;;;;;;10.62;71.66;101667.03;5103027;28;20043;-81
2023/04/07 05:02:00;;;;;;;0.10;0.10;;;;;;;10.61;71.45;101671.44;5097883;28;20024;-80
2023/04/07 05:04:27;;;;;;;0.10;0.10;;;;;;;10.61;71.28;101679.38;5103614;28;20036;-81
2023/04/07 05:06:53;;;;;;;0.10;0.10;;;;;;;10.64;71.38;101683.78;5102265;28;20023;-79
2023/04/07 05:09:19;;;;;;;0.10;0.10;;;;;;;10.60;70.79;101677.63;5103711;28;20028;-80
2023/04/07 05:11:45;;;;;;;0.10;0.10;;;;;;;10.59;70.90;101678.53;5104412;28;20032;-80
2023/04/07 05:14:11;;;;;;;0.10;0.10;;;;;;;10.61;71.28;101682.03;5096272;28;20065;-81
2023/04/07 05:16:37;;;;;;;0.10;0.10;;;;;;;10.64;71.42;101684.69;5095452;28;20035;-79
2023/04/07 05:19:03;;;;;;;0.00;0.00;;;;;;;10.65;70.92;101694.41;5101521;28;20028;-80
2023/04/07 05:21:30;;;;;;;0.10;0.10;;;;;;;10.64;71.40;101682.03;5103787;28;20085;-81
2023/04/07 05:23:56;;;;;;;0.30;0.30;;;;;;;10.66;71.30;101685.53;5109258;28;20028;-81
2023/04/07 05:26:22;;;;;;;0.10;0.10;;;;;;;10.69;71.00;101689.94;5098446;28;20035;-81
2023/04/07 05:28:48;;;;;;;0.10;0.10;;;;;;;10.71;70.99;101684.66;5101556;28;20061;-81
2023/04/07 05:31:14;;;;;;;0.10;0.10;;;;;;;10.73;71.07;101696.09;5103424;28;20028;-81
2023/04/07 05:33:40;;;;;;;0.10;0.10;;;;;;;10.74;70.80;101697.84;5098242;28;20442;-79
2023/04/07 05:36:06;;;;;;;0.10;0.10;;;;;;;10.73;70.71;101688.13;5094262;28;20412;-81
2023/04/07 05:38:32;;;;;;;0.10;0.10;;;;;;;10.77;71.01;101698.72;5101791;28;20028;-81
2023/04/07 05:40:58;;;;;;;0.10;0.10;;;;;;;10.68;70.88;101701.44;5106573;28;20039;-79
2023/04/07 05:43:24;;;;;;;0.10;0.10;;;;;;;10.67;70.68;101703.19;5094289;28;20039;-81
2023/04/07 05:45:50;;;;;;;0.13;0.13;;;;;;;10.70;70.98;101702.28;5101854;28;20027;-81
2023/04/07 05:48:16;;;;;;;0.10;0.10;;;;;;;10.70;70.57;101712.91;5102038;28;20499;-84
2023/04/07 05:50:43;;;;;;;0.00;0.00;;;;;;;10.75;70.30;101707.56;5103193;28;20036;-85
2023/04/07 05:53:09;;;;;;;0.20;0.20;;;;;;;10.74;70.47;101713.75;5104585;28;20020;-83
2023/04/07 05:55:35;;;;;;;0.10;0.10;;;;;;;10.64;70.05;101710.28;5091100;28;20035;-83
2023/04/07 05:58:01;;;;;;;0.08;0.08;;;;;;;10.75;69.90;101715.53;5095031;28;20034;-83
2023/04/07 06:00:27;;;;;;;0.10;0.10;;;;;;;10.65;69.21;101715.59;5089776;28;20035;-84
2023/04/07 06:02:53;;;;;;;0.10;0.10;;;;;;;10.78;70.22;101712.84;5086655;28;20044;-82
2023/04/07 06:05:19;;;;;;;0.95;0.95;;;;;;;10.73;69.13;101714.66;5088267;28;20027;-81
2023/04/07 06:07:45;;;;;;;0.10;0.10;;;;;;;10.77;69.25;101724.38;5083235;28;20417;-82
2023/04/07 06:10:11;;;;;;;0.10;0.10;;;;;;;10.76;69.62;101726.13;5099744;28;20124;-80
2023/04/07 06:12:37;;;;;;;0.10;0.10;;;;;;;10.82;69.29;101733.16;5106613;28;20055;-80
2023/04/07 06:15:04;;;;;;;0.10;0.10;;;;;;;10.88;69.30;101727.81;5099711;28;20039;-83
2023/04/07 06:17:30;;;;;;;0.10;0.10;;;;;;;10.94;68.78;101725.13;5099048;28;20027;-83
2023/04/07 06:19:56;;;;;;;0.10;0.10;;;;;;;10.94;68.82;101732.19;5084983;28;20028;-82
2023/04/07 06:22:22;;;;;;;0.10;0.10;;;;;;;10.98;68.70;101724.19;5099915;28;20039;-81
2023/04/07 06:24:48;;;;;;;0.08;0.08;;;;;;;11.07;68.55;101725.91;5087711;28;20060;-80
2023/04/07 06:27:16;;;;;;;0.10;0.10;;;;;;;11.10;68.71;101725.88;5085900;28;20024;-81
2023/04/07 06:29:42;;;;;;;0.00;0.00;;;;;;;11.19;68.49;101722.28;5081475;28;20028;-82
2023/04/07 06:32:08;;;;;;;0.10;0.10;;;;;;;11.20;68.82;101726.66;5081704;28;20039;-83
2023/04/07 06:34:34;;;;;;;0.10;0.10;;;;;;;11.24;67.89;101731.06;5089991;28;20473;-81
2023/04/07 06:37:00;;;;;;;0.10;0.10;;;;;;;11.23;67.73;101723.13;5096810;28;20100;-82
2023/04/07 06:39:27;;;;;;;0.08;0.08;;;;;;;11.27;67.74;101725.72;5099482;28;20034;-82
2023/04/07 06:41:53;;;;;;;0.10;0.10;;;;;;;11.30;67.61;101727.47;5095633;28;20036;-81
2023/04/07 06:44:19;;;;;;;0.10;0.10;;;;;;;11.34;68.09;101729.22;5096072;28;20035;-81
2023/04/07 06:46:48;;;;;;;0.20;0.20;;;;;;;11.29;66.97;101734.56;5093375;28;20144;-82
2023/04/07 06:49:15;;;;;;;0.10;0.10;;;;;;;11.29;67.41;101736.31;5098612;28;20103;-82
2023/04/07 06:51:41;;;;;;;0.10;0.10;;;;;;;11.25;67.20;101739.91;5084002;28;20016;-82
2023/04/07 06:54:11;;;;;;;0.10;0.10;;;;;;;11.26;67.07;101744.31;5093190;28;20025;-80
2023/04/07 06:56:38;;;;;;;0.10;0.10;;;;;;;11.28;67.26;101753.16;5093394;28;20028;-81
2023/04/07 06:59:04;;;;;;;0.25;0.25;;;;;;;11.27;67.89;101752.25;5101732;28;20052;-82
2023/04/07 07:01:30;;;;;;;0.10;0.10;;;;;;;11.29;67.50;101755.78;5089760;28;20048;-82
2023/04/07 07:03:56;;;;;;;0.10;0.10;;;;;;;11.30;67.78;101764.59;5097495;28;20028;-83
2023/04/07 07:06:22;;;;;;;0.10;0.10;;;;;;;11.29;67.96;101760.19;5097721;28;20489;-84
2023/04/07 07:08:48;;;;;;;0.00;0.00;;;;;;;11.30;67.78;101765.50;5098342;28;20063;-82
2023/04/07 07:11:14;;;;;;;0.10;0.10;;;;;;;11.23;67.47;101765.59;5099421;28;20024;-83
2023/04/07 07:13:40;;;;;;;0.10;0.10;;;;;;;11.27;66.82;101762.88;5098510;28;20024;-80
2023/04/07 07:16:06;;;;;;;0.10;0.10;;;;;;;11.26;66.80;101771.72;5098819;28;20020;-81
2023/04/07 07:18:32;;;;;;;0.00;0.00;;;;;;;11.25;66.58;101769.97;5093349;28;20027;-85
2023/04/07 07:20:58;;;;;;;0.10;0.10;;;;;;;11.29;66.91;101777.00;5091308;28;20389;-84
2023/04/07 07:23:24;;;;;;;0.10;0.10;;;;;;;11.27;66.88;101781.44;5097986;28;20024;-85
2023/04/07 07:25:50;;;;;;;0.10;0.10;;;;;;;11.27;66.20;101781.44;5094881;28;20055;-83
2023/04/07 07:28:17;;;;;;;0.38;0.38;;;;;;;11.25;65.85;101787.66;5098061;28;20036;-83
2023/04/07 07:30:43;;;;;;;0.40;0.40;;;;;;;11.25;66.27;101788.56;5105118;28;20028;-82
2023/04/07 07:33:09;;;;;;;0.10;0.10;;;;;;;11.21;65.12;101794.75;5106041;28;20066;-82
2023/04/07 07:35:36;;;;;;;0.10;0.10;;;;;;;11.15;64.76;101800.09;5101357;28;20031;-81
2023/04/07 07:38:03;;;;;;;0.00;0.00;;;;;;;11.17;64.48;101787.72;5102046;28;20516;-85
2023/04/07 07:40:29;;;;;;;3.63;2.38;;;;;;;11.20;64.04;101803.59;5095072;28;20032;-85
2023/04/07 07:42:55;;;;;;;0.10;0.10;;;;;;;11.29;64.33;101808.84;5095995;28;20062;-85
2023/04/07 07:45:21;;;;;;;0.10;0.10;;;;;;;11.29;64.60;101802.63;5098865;28;20028;-85
2023/04/07 07:47:47;;;;;;;0.10;0.10;;;;;;;11.33;65.25;101807.91;5090239;28;20120;-85
2023/04/07 07:50:13;;;;;;;0.10;0.10;;;;;;;11.35;64.67;101802.59;5090701;28;20020;-84
2023/04/07 07:52:40;;;;;;;0.10;0.10;;;;;;;11.36;64.79;101814.09;5094300;28;20031;-82
2023/04/07 07:55:06;;;;;;;0.40;0.40;;;;;;;11.21;64.99;101805.34;5094668;28;20016;-82
2023/04/07 07:57:32;;;;;;;0.63;0.63;;;;;;;11.29;64.55;101808.84;5088757;28;20047;-81
2023/04/07 07:59:59;;;;;;;0.10;0.10;;;;;;;11.32;64.64;101810.59;5091342;28;20035;-81
2023/04/07 08:02:29;;;;;;;0.10;0.10;;;;;;;11.35;64.63;101809.69;5083446;28;20137;-84
2023/04/07 08:04:56;;;;;;;0.10;0.10;;;;;;;11.51;64.46;101808.66;5087862;28;20032;-84
2023/04/07 08:07:22;;;;;;;0.00;0.00;;;;;;;11.63;64.82;101818.31;5091014;28;20073;-84
2023/04/07 08:09:48;;;;;;;0.10;0.10;;;;;;;11.62;64.47;101817.41;5085791;28;20042;-84
2023/04/07 08:12:15;;;;;;;0.10;0.10;;;;;;;11.54;64.63;101816.63;5098957;28;20047;-84
2023/04/07 08:14:41;;;;;;;0.10;0.10;;;;;;;11.51;64.57;101819.28;5086083;28;20056;-82
2023/04/07 08:17:07;;;;;;;0.10;0.10;;;;;;;11.55;64.13;101826.34;5087855;28;20547;-83
2023/04/07 08:19:33;;;;;;;0.10;0.10;;;;;;;11.47;65.00;101826.38;5091028;28;20024;-84
2023/04/07 08:21:59;;;;;;;0.30;0.30;;;;;;;11.52;65.00;101831.66;5096810;28;20020;-83
2023/04/07 08:24:27;;;;;;;0.10;0.10;;;;;;;11.45;64.21;101832.59;5082788;28;20021;-84
2023/04/07 08:27:04;;;;;;;0.10;0.10;;;;;;;11.48;64.39;101835.25;5087432;28;20392;-84
2023/04/07 08:29:30;;;;;;;0.10;0.10;;;;;;;11.48;64.08;101844.06;5073327;28;20086;-83
2023/04/07 08:31:56;;;;;;;0.10;0.10;;;;;;;11.53;64.10;101833.44;5079827;28;20490;-84
2023/04/07 08:34:23;;;;;;;0.10;0.10;;;;;;;11.53;63.27;101845.84;5085780;28;20046;-84
2023/04/07 08:36:49;;;;;;;0.10;0.10;;;;;;;11.64;63.93;101843.97;5088418;28;20054;-83
2023/04/07 08:39:15;;;;;;;0.10;0.10;;;;;;;11.64;63.15;101839.53;5083911;28;20489;-83
2023/04/07 08:41:44;;;;;;;0.10;0.10;;;;;;;11.54;62.20;101851.13;5081054;28;20084;-83
2023/04/07 08:44:12;;;;;;;0.10;0.10;;;;;;;11.65;62.76;101843.03;5081917;28;20094;-83
2023/04/07 08:46:39;;;;;;;0.10;0.10;;;;;;;11.71;63.19;101847.44;5089693;28;20025;-83
2023/04/07 08:49:09;;;;;;;0.10;0.10;;;;;;;11.70;62.73;101843.00;5089580;28;20084;-81
2023/04/07 08:51:41;;;;;;;0.10;0.10;;;;;;;11.59;62.35;101849.31;5098972;28;20028;-80
2023/04/07 08:54:11;;;;;;;0.10;0.10;;;;;;;11.77;62.76;101847.38;5099773;28;20024;-83
2023/04/07 08:56:41;;;;;;;0.10;0.10;;;;;;;11.77;62.14;101852.69;5099052;28;20111;-82
2023/04/07 08:59:10;;;;;;;0.10;0.10;;;;;;;11.76;62.52;101862.44;5098277;28;20397;-83
2023/04/07 09:01:36;;;;;;;0.10;0.10;;;;;;;11.76;62.36;101858.91;5097117;28;20091;-83
2023/04/07 09:04:04;;;;;;;0.10;0.10;;;;;;;11.81;61.81;101851.75;5098104;28;20125;-82
2023/04/07 09:06:31;;;;;;;0.10;0.10;;;;;;;11.94;62.15;101856.06;5098872;28;20038;-83
2023/04/07 09:08:58;;;;;;;0.10;0.10;;;;;;;11.96;62.45;101864.06;5089303;28;20436;-81
2023/04/07 09:11:25;;;;;;;0.10;0.10;;;;;;;11.97;61.98;101855.19;5088388;28;20039;-83
2023/04/07 09:13:51;;;;;;;0.10;0.10;;;;;;;12.00;62.09;101864.91;5099571;28;20053;-83
2023/04/07 09:16:17;;;;;;;0.10;0.10;;;;;;;12.05;61.71;101863.09;5099536;28;20115;-84
2023/04/07 09:18:44;;;;;;;0.10;0.10;;;;;;;12.05;61.60;101863.97;5091703;28;20079;-84
2023/04/07 09:21:10;;;;;;;0.10;0.10;;;;;;;12.08;61.26;101863.06;5093215;28;20035;-84
2023/04/07 09:23:38;;;;;;;0.35;0.35;;;;;;;12.09;61.73;101864.84;5090204;28;20083;-83
2023/04/07 09:29:02;;;;;;;0.05;0.05;;;;;;;12.05;61.38;101868.41;5102356;27;20368;-82
2023/04/07 09:31:52;;;;;;;0.65;0.47;;;;;;;12.11;61.19;101869.22;5080771;28;20032;-83
2023/04/07 09:34:31;;;;;;;0.10;0.10;;;;;;;12.11;61.83;101863.03;5089239;28;20074;-82
2023/04/07 09:37:21;;;;;;;0.10;0.10;;;;;;;12.21;61.96;101869.13;5085028;28;20021;-82
2023/04/07 09:39:50;;;;;;;0.17;0.17;;;;;;;12.20;61.34;101867.34;5079957;28;20478;-82
2023/04/07 09:42:16;;;;;;;0.10;0.10;;;;;;;12.32;61.76;101869.03;5082797;28;20035;-82
2023/04/07 09:44:43;;;;;;;0.00;0.00;;;;;;;12.28;61.56;101874.34;5095422;28;20021;-83
2023/04/07 09:47:19;;;;;;;0.10;0.10;;;;;;;12.30;61.74;101880.53;5087938;28;20028;-82
2023/04/07 09:49:53;;;;;;;0.10;0.10;;;;;;;12.23;60.69;101881.50;5093449;28;20315;-82
2023/04/07 09:52:24;;;;;;;0.00;0.00;;;;;;;12.21;61.15;101875.34;5094819;28;20035;-82
2023/04/07 09:54:54;;;;;;;0.10;0.10;;;;;;;12.12;61.15;101880.72;5091306;28;20039;-81
2023/04/07 09:57:21;;;;;;;0.10;0.10;;;;;;;12.13;61.92;101883.38;5094038;28;20024;-82
2023/04/07 09:59:49;;;;;;;0.03;0.03;;;;;;;12.10;61.81;101885.16;5089228;28;20025;-82
2023/04/07 10:02:15;;;;;;;0.05;0.05;;;;;;;12.10;61.65;101874.53;5082982;28;20033;-84
2023/04/07 10:04:42;;;;;;;0.10;0.10;;;;;;;12.10;61.69;101888.72;5077247;28;20033;-80
2023/04/07 10:07:08;;;;;;;0.10;0.10;;;;;;;12.13;61.54;101883.38;5074337;28;20017;-82
2023/04/07 10:09:35;;;;;;;0.10;0.10;;;;;;;12.14;61.00;101877.16;5089757;28;20028;-84
2023/04/07 10:12:01;;;;;;;0.10;0.10;;;;;;;12.16;61.15;101879.78;5094073;28;20027;-84
2023/04/07 10:14:31;;;;;;;0.10;0.10;;;;;;;12.26;61.52;101877.94;5094937;28;20032;-83
2023/04/07 10:16:58;;;;;;;0.70;0.70;;;;;;;12.33;61.37;101884.06;5088237;28;20021;-83
2023/04/07 10:19:28;;;;;;;0.10;0.10;;;;;;;12.42;61.63;101891.94;5083697;28;20032;-85
2023/04/07 10:21:58;;;;;;;0.10;0.10;;;;;;;12.35;60.85;101884.91;5088656;28;20031;-87
2023/04/07 10:25:03;;;;;;;0.20;0.20;;;;;;;12.40;60.21;101889.31;5087489;28;20028;-85
2023/04/07 10:27:33;;;;;;;0.10;0.10;;;;;;;12.43;60.35;101891.03;5088665;28;20025;-84
2023/04/07 10:30:00;;;;;;;0.10;0.10;;;;;;;12.50;59.76;101889.19;5084095;28;20105;-81
2023/04/07 10:32:26;;;;;;;0.10;0.10;;;;;;;12.51;59.83;101899.84;5090187;28;20035;-82
2023/04/07 10:37:33;;;;;;;0.10;0.10;;;;;;;12.56;59.94;101902.41;5110081;27;20129;-81
2023/04/07 10:42:55;;;;;;;0.10;0.10;;;;;;;12.49;61.05;101900.75;5107430;27;1183448;-83
2023/04/07 10:45:51;;;;;;;0.10;0.10;;;;;;;12.75;60.32;101903.09;5138766;27;20027;-83
2023/04/07 10:48:19;;;;;;;0.10;0.10;;;;;;;12.64;59.37;101899.69;5137332;28;20476;-85
2023/04/07 10:51:06;;;;;;;0.10;0.10;;;;;;;12.64;59.81;101905.88;5136703;27;20023;-85
2023/04/07 10:53:33;;;;;;;0.10;0.10;;;;;;;12.68;59.88;101901.41;5120773;28;20198;-86
2023/04/07 10:56:00;;;;;;;0.55;0.55;;;;;;;12.59;59.87;101910.38;5134511;28;20020;-85
2023/04/07 10:58:28;;;;;;;0.05;0.05;;;;;;;12.60;59.73;101905.03;5134352;28;20059;-86
2023/04/07 11:03:36;;;;;;;0.10;0.10;;;;;;;12.67;60.07;101911.16;5099613;27;1181588;-84
2023/04/07 11:06:11;;;;;;;0.17;0.17;;;;;;;12.65;60.47;101915.63;5112351;28;20028;-83
2023/04/07 11:08:42;;;;;;;0.10;0.10;;;;;;;12.71;60.62;101914.66;5109441;28;20023;-85
2023/04/07 11:11:15;;;;;;;0.20;0.20;;;;;;;12.67;60.20;101920.91;5111777;28;20429;-84
2023/04/07 11:13:43;;;;;;;0.10;0.10;;;;;;;12.61;60.64;101920.09;5107431;28;20085;-84
2023/04/07 11:16:10;;;;;;;0.10;0.10;;;;;;;12.61;60.48;101921.84;5104891;28;20028;-84
2023/04/07 11:18:38;;;;;;;0.20;0.20;;;;;;;12.60;60.48;101928.94;5109271;28;20052;-84
2023/04/07 11:21:05;;;;;;;0.30;0.30;;;;;;;12.67;60.44;101936.88;5103187;28;20509;-85
2023/04/07 11:23:47;;;;;;;0.20;0.20;;;;;;;12.76;60.29;101916.38;5104870;28;20111;-86
2023/04/07 11:26:15;;;;;;;0.75;0.75;;;;;;;12.69;60.85;101925.31;5107034;28;20127;-85
2023/04/07 11:28:51;;;;;;;2.17;1.20;;;;;;;12.64;60.48;101929.81;5122497;28;20066;-85
2023/04/07 11:31:33;;;;;;;0.10;0.10;;;;;;;12.68;60.69;101925.34;5122179;28;20081;-84
2023/04/07 11:34:03;;;;;;;0.10;0.10;;;;;;;12.51;61.09;101931.72;5124638;28;20035;-85
2023/04/07 11:36:39;;;;;;;0.00;0.00;;;;;;;12.62;61.85;101932.50;5103420;28;20115;-85
2023/04/07 11:39:17;;;;;;;0.10;0.10;;;;;;;12.65;61.05;101923.59;5112320;22;20041;-82